sensor_id;sensor_type;location;lat;lon;timestamp;P1;durP1;ratioP1;P2;durP2;ratioP2
46653;SDS011;38960;51.074;17.004;2023-12-04T00:00:03;66.07;;;29.07;;
46653;SDS011;38960;51.074;17.004;2023-12-04T00:02:37;59.40;;;27.77;;
46653;SDS011;38960;51.074;17.004;2023-12-04T00:05:04;65.83;;;29.40;;
46653;SDS011;38960;51.074;17.004;2023-12-04T00:07:30;50.63;;;25.43;;
46653;SDS011;38960;51.074;17.004;2023-12-04T00:09:56;52.50;;;24.63;;
46653;SDS011;38960;51.074;17.004;2023-12-04T00:12:21;52.70;;;26.13;;
46653;SDS011;38960;51.074;17.004;2023-12-04T00:14:46;51.50;;;25.27;;
46653;SDS011;38960;51.074;17.004;2023-12-04T00:17:12;56.70;;;28.03;;
46653;SDS011;38960;51.074;17.004;2023-12-04T00:19:37;51.80;;;25.60;;
46653;SDS011;38960;51.074;17.004;2023-12-04T00:22:03;56.60;;;26.83;;
46653;SDS011;38960;51.074;17.004;2023-12-04T00:24:28;53.53;;;25.23;;
46653;SDS011;38960;51.074;17.004;2023-12-04T00:26:54;48.83;;;25.27;;
46653;SDS011;38960;51.074;17.004;2023-12-04T00:29:19;47.87;;;24.13;;
46653;SDS011;38960;51.074;17.004;2023-12-04T00:31:45;54.17;;;25.57;;
46653;SDS011;38960;51.074;17.004;2023-12-04T00:34:10;49.80;;;23.00;;
46653;SDS011;38960;51.074;17.004;2023-12-04T00:36:37;44.33;;;23.77;;
46653;SDS011;38960;51.074;17.004;2023-12-04T00:39:02;50.87;;;24.00;;
46653;SDS011;38960;51.074;17.004;2023-12-04T00:41:29;43.60;;;22.43;;
46653;SDS011;38960;51.074;17.004;2023-12-04T00:43:54;46.40;;;23.13;;
46653;SDS011;38960;51.074;17.004;2023-12-04T00:46:20;41.90;;;21.93;;
46653;SDS011;38960;51.074;17.004;2023-12-04T00:48:45;42.40;;;21.03;;
46653;SDS011;38960;51.074;17.004;2023-12-04T00:51:11;34.20;;;17.83;;
46653;SDS011;38960;51.074;17.004;2023-12-04T00:53:37;39.83;;;19.10;;
46653;SDS011;38960;51.074;17.004;2023-12-04T00:56:02;37.77;;;18.87;;
46653;SDS011;38960;51.074;17.004;2023-12-04T00:58:28;47.77;;;21.57;;
46653;SDS011;38960;51.074;17.004;2023-12-04T01:00:53;47.07;;;20.83;;
46653;SDS011;38960;51.074;17.004;2023-12-04T01:03:19;42.73;;;20.03;;
46653;SDS011;38960;51.074;17.004;2023-12-04T01:05:44;43.17;;;21.20;;
46653;SDS011;38960;51.074;17.004;2023-12-04T01:08:10;39.47;;;20.07;;
46653;SDS011;38960;51.074;17.004;2023-12-04T01:10:35;40.50;;;19.60;;
46653;SDS011;38960;51.074;17.004;2023-12-04T01:13:01;45.47;;;21.43;;
46653;SDS011;38960;51.074;17.004;2023-12-04T01:15:27;50.03;;;24.17;;
46653;SDS011;38960;51.074;17.004;2023-12-04T01:17:52;45.73;;;22.40;;
46653;SDS011;38960;51.074;17.004;2023-12-04T01:20:18;48.33;;;21.07;;
46653;SDS011;38960;51.074;17.004;2023-12-04T01:22:43;50.50;;;24.07;;
46653;SDS011;38960;51.074;17.004;2023-12-04T01:25:08;43.60;;;21.07;;
46653;SDS011;38960;51.074;17.004;2023-12-04T01:27:34;39.80;;;21.07;;
46653;SDS011;38960;51.074;17.004;2023-12-04T01:30:03;40.33;;;20.43;;
46653;SDS011;38960;51.074;17.004;2023-12-04T01:32:30;44.20;;;21.87;;
46653;SDS011;38960;51.074;17.004;2023-12-04T01:34:55;42.23;;;21.20;;
46653;SDS011;38960;51.074;17.004;2023-12-04T01:37:21;42.37;;;21.57;;
46653;SDS011;38960;51.074;17.004;2023-12-04T01:39:46;44.03;;;21.53;;
46653;SDS011;38960;51.074;17.004;2023-12-04T01:42:12;45.47;;;23.47;;
46653;SDS011;38960;51.074;17.004;2023-12-04T01:44:37;40.63;;;20.53;;
46653;SDS011;38960;51.074;17.004;2023-12-04T01:47:03;49.47;;;22.43;;
46653;SDS011;38960;51.074;17.004;2023-12-04T01:49:29;44.70;;;21.73;;
46653;SDS011;38960;51.074;17.004;2023-12-04T01:51:55;41.97;;;20.43;;
46653;SDS011;38960;51.074;17.004;2023-12-04T01:54:21;44.57;;;20.73;;
46653;SDS011;38960;51.074;17.004;2023-12-04T01:56:47;45.20;;;20.47;;
46653;SDS011;38960;51.074;17.004;2023-12-04T01:59:12;37.80;;;19.90;;
46653;SDS011;38960;51.074;17.004;2023-12-04T02:01:38;43.87;;;21.13;;
46653;SDS011;38960;51.074;17.004;2023-12-04T02:04:04;39.97;;;20.33;;
46653;SDS011;38960;51.074;17.004;2023-12-04T02:06:29;46.27;;;22.00;;
46653;SDS011;38960;51.074;17.004;2023-12-04T02:08:55;42.87;;;20.53;;
46653;SDS011;38960;51.074;17.004;2023-12-04T02:11:21;41.13;;;20.40;;
46653;SDS011;38960;51.074;17.004;2023-12-04T02:13:47;43.27;;;22.87;;
46653;SDS011;38960;51.074;17.004;2023-12-04T02:16:12;40.07;;;19.97;;
46653;SDS011;38960;51.074;17.004;2023-12-04T02:18:39;41.50;;;19.07;;
46653;SDS011;38960;51.074;17.004;2023-12-04T02:21:04;37.87;;;20.03;;
46653;SDS011;38960;51.074;17.004;2023-12-04T02:23:30;43.67;;;21.40;;
46653;SDS011;38960;51.074;17.004;2023-12-04T02:25:58;47.80;;;22.10;;
46653;SDS011;38960;51.074;17.004;2023-12-04T02:28:27;37.90;;;20.60;;
46653;SDS011;38960;51.074;17.004;2023-12-04T02:30:57;45.90;;;21.77;;
46653;SDS011;38960;51.074;17.004;2023-12-04T02:33:24;44.87;;;22.23;;
46653;SDS011;38960;51.074;17.004;2023-12-04T02:35:50;38.57;;;19.83;;
46653;SDS011;38960;51.074;17.004;2023-12-04T02:38:16;38.20;;;19.47;;
46653;SDS011;38960;51.074;17.004;2023-12-04T02:40:41;41.70;;;19.43;;
46653;SDS011;38960;51.074;17.004;2023-12-04T02:43:07;35.70;;;18.90;;
46653;SDS011;38960;51.074;17.004;2023-12-04T02:45:32;42.17;;;20.17;;
46653;SDS011;38960;51.074;17.004;2023-12-04T02:47:58;37.07;;;19.83;;
46653;SDS011;38960;51.074;17.004;2023-12-04T02:50:23;44.50;;;20.83;;
46653;SDS011;38960;51.074;17.004;2023-12-04T02:52:49;37.90;;;19.13;;
46653;SDS011;38960;51.074;17.004;2023-12-04T02:55:14;39.27;;;19.53;;
46653;SDS011;38960;51.074;17.004;2023-12-04T02:57:40;41.97;;;20.83;;
46653;SDS011;38960;51.074;17.004;2023-12-04T03:00:06;38.53;;;19.67;;
46653;SDS011;38960;51.074;17.004;2023-12-04T03:02:31;36.47;;;19.33;;
46653;SDS011;38960;51.074;17.004;2023-12-04T03:04:57;38.10;;;20.53;;
46653;SDS011;38960;51.074;17.004;2023-12-04T03:07:23;37.80;;;18.53;;
46653;SDS011;38960;51.074;17.004;2023-12-04T03:09:49;33.67;;;18.37;;
46653;SDS011;38960;51.074;17.004;2023-12-04T03:12:15;38.03;;;18.17;;
46653;SDS011;38960;51.074;17.004;2023-12-04T03:14:44;39.90;;;19.40;;
46653;SDS011;38960;51.074;17.004;2023-12-04T03:17:09;53.10;;;21.13;;
46653;SDS011;38960;51.074;17.004;2023-12-04T03:19:35;43.17;;;20.33;;
46653;SDS011;38960;51.074;17.004;2023-12-04T03:22:00;43.83;;;20.40;;
46653;SDS011;38960;51.074;17.004;2023-12-04T03:24:26;45.23;;;21.27;;
46653;SDS011;38960;51.074;17.004;2023-12-04T03:26:52;40.90;;;19.97;;
46653;SDS011;38960;51.074;17.004;2023-12-04T03:29:17;40.87;;;22.03;;
46653;SDS011;38960;51.074;17.004;2023-12-04T03:31:43;41.20;;;20.43;;
46653;SDS011;38960;51.074;17.004;2023-12-04T03:34:08;40.73;;;19.63;;
46653;SDS011;38960;51.074;17.004;2023-12-04T03:36:34;43.57;;;21.80;;
46653;SDS011;38960;51.074;17.004;2023-12-04T03:38:59;39.93;;;19.93;;
46653;SDS011;38960;51.074;17.004;2023-12-04T03:41:25;38.47;;;20.50;;
46653;SDS011;38960;51.074;17.004;2023-12-04T03:43:50;40.47;;;20.03;;
46653;SDS011;38960;51.074;17.004;2023-12-04T03:46:16;44.60;;;20.57;;
46653;SDS011;38960;51.074;17.004;2023-12-04T03:48:41;43.97;;;20.83;;
46653;SDS011;38960;51.074;17.004;2023-12-04T03:51:07;42.33;;;20.90;;
46653;SDS011;38960;51.074;17.004;2023-12-04T03:53:33;41.77;;;20.17;;
46653;SDS011;38960;51.074;17.004;2023-12-04T03:55:58;44.70;;;21.40;;
46653;SDS011;38960;51.074;17.004;2023-12-04T03:58:24;45.43;;;21.50;;
46653;SDS011;38960;51.074;17.004;2023-12-04T04:00:49;43.80;;;20.47;;
46653;SDS011;38960;51.074;17.004;2023-12-04T04:03:15;51.53;;;21.73;;
46653;SDS011;38960;51.074;17.004;2023-12-04T04:05:40;40.93;;;19.97;;
46653;SDS011;38960;51.074;17.004;2023-12-04T04:08:06;44.50;;;20.67;;
46653;SDS011;38960;51.074;17.004;2023-12-04T04:10:33;50.30;;;22.67;;
46653;SDS011;38960;51.074;17.004;2023-12-04T04:12:59;50.40;;;23.30;;
46653;SDS011;38960;51.074;17.004;2023-12-04T04:15:25;44.43;;;20.80;;
46653;SDS011;38960;51.074;17.004;2023-12-04T04:17:51;46.90;;;22.03;;
46653;SDS011;38960;51.074;17.004;2023-12-04T04:20:16;46.57;;;22.67;;
46653;SDS011;38960;51.074;17.004;2023-12-04T04:22:42;46.93;;;22.87;;
46653;SDS011;38960;51.074;17.004;2023-12-04T04:25:08;49.27;;;23.57;;
46653;SDS011;38960;51.074;17.004;2023-12-04T04:27:34;39.70;;;20.17;;
46653;SDS011;38960;51.074;17.004;2023-12-04T04:29:59;42.57;;;20.40;;
46653;SDS011;38960;51.074;17.004;2023-12-04T04:32:25;45.20;;;21.03;;
46653;SDS011;38960;51.074;17.004;2023-12-04T04:34:51;43.53;;;20.70;;
46653;SDS011;38960;51.074;17.004;2023-12-04T04:37:16;45.23;;;20.93;;
46653;SDS011;38960;51.074;17.004;2023-12-04T04:39:42;40.13;;;21.10;;
46653;SDS011;38960;51.074;17.004;2023-12-04T04:42:07;43.83;;;21.33;;
46653;SDS011;38960;51.074;17.004;2023-12-04T04:44:33;41.13;;;20.47;;
46653;SDS011;38960;51.074;17.004;2023-12-04T04:46:59;44.80;;;21.27;;
46653;SDS011;38960;51.074;17.004;2023-12-04T04:49:24;46.43;;;22.83;;
46653;SDS011;38960;51.074;17.004;2023-12-04T04:51:50;45.03;;;21.23;;
46653;SDS011;38960;51.074;17.004;2023-12-04T04:54:15;48.27;;;23.33;;
46653;SDS011;38960;51.074;17.004;2023-12-04T04:56:41;40.17;;;20.30;;
46653;SDS011;38960;51.074;17.004;2023-12-04T04:59:06;41.80;;;22.00;;
46653;SDS011;38960;51.074;17.004;2023-12-04T05:01:32;44.30;;;22.27;;
46653;SDS011;38960;51.074;17.004;2023-12-04T05:03:57;44.60;;;20.97;;
46653;SDS011;38960;51.074;17.004;2023-12-04T05:06:23;41.77;;;21.47;;
46653;SDS011;38960;51.074;17.004;2023-12-04T05:08:49;42.20;;;21.43;;
46653;SDS011;38960;51.074;17.004;2023-12-04T05:11:17;42.77;;;22.20;;
46653;SDS011;38960;51.074;17.004;2023-12-04T05:13:44;42.93;;;20.87;;
46653;SDS011;38960;51.074;17.004;2023-12-04T05:16:10;45.17;;;21.67;;
46653;SDS011;38960;51.074;17.004;2023-12-04T05:18:35;45.93;;;21.63;;
46653;SDS011;38960;51.074;17.004;2023-12-04T05:21:01;42.97;;;22.27;;
46653;SDS011;38960;51.074;17.004;2023-12-04T05:23:26;43.00;;;22.97;;
46653;SDS011;38960;51.074;17.004;2023-12-04T05:25:52;46.43;;;21.10;;
46653;SDS011;38960;51.074;17.004;2023-12-04T05:28:17;41.50;;;21.90;;
46653;SDS011;38960;51.074;17.004;2023-12-04T05:30:43;40.40;;;20.07;;
46653;SDS011;38960;51.074;17.004;2023-12-04T05:33:08;44.63;;;21.93;;
46653;SDS011;38960;51.074;17.004;2023-12-04T05:35:34;44.03;;;21.73;;
46653;SDS011;38960;51.074;17.004;2023-12-04T05:38:01;44.33;;;23.17;;
46653;SDS011;38960;51.074;17.004;2023-12-04T05:40:26;43.33;;;22.80;;
46653;SDS011;38960;51.074;17.004;2023-12-04T05:42:52;42.03;;;23.33;;
46653;SDS011;38960;51.074;17.004;2023-12-04T05:45:18;42.87;;;24.47;;
46653;SDS011;38960;51.074;17.004;2023-12-04T05:47:43;51.80;;;26.17;;
46653;SDS011;38960;51.074;17.004;2023-12-04T05:50:09;47.43;;;23.70;;
46653;SDS011;38960;51.074;17.004;2023-12-04T05:52:34;54.87;;;25.10;;
46653;SDS011;38960;51.074;17.004;2023-12-04T05:55:00;54.60;;;25.53;;
46653;SDS011;38960;51.074;17.004;2023-12-04T05:57:25;48.00;;;24.23;;
46653;SDS011;38960;51.074;17.004;2023-12-04T05:59:51;53.00;;;26.23;;
46653;SDS011;38960;51.074;17.004;2023-12-04T06:02:16;52.80;;;26.23;;
46653;SDS011;38960;51.074;17.004;2023-12-04T06:04:42;46.97;;;24.73;;
46653;SDS011;38960;51.074;17.004;2023-12-04T06:07:08;47.33;;;24.13;;
46653;SDS011;38960;51.074;17.004;2023-12-04T06:09:34;51.67;;;25.30;;
46653;SDS011;38960;51.074;17.004;2023-12-04T06:12:02;45.23;;;23.47;;
46653;SDS011;38960;51.074;17.004;2023-12-04T06:14:33;52.87;;;25.20;;
46653;SDS011;38960;51.074;17.004;2023-12-04T06:16:58;53.23;;;26.33;;
46653;SDS011;38960;51.074;17.004;2023-12-04T06:19:24;56.53;;;26.30;;
46653;SDS011;38960;51.074;17.004;2023-12-04T06:21:49;51.00;;;26.23;;
46653;SDS011;38960;51.074;17.004;2023-12-04T06:24:15;56.30;;;27.30;;
46653;SDS011;38960;51.074;17.004;2023-12-04T06:26:41;52.07;;;25.37;;
46653;SDS011;38960;51.074;17.004;2023-12-04T06:29:08;54.03;;;25.67;;
46653;SDS011;38960;51.074;17.004;2023-12-04T06:31:34;51.07;;;24.93;;
46653;SDS011;38960;51.074;17.004;2023-12-04T06:34:00;59.63;;;27.07;;
46653;SDS011;38960;51.074;17.004;2023-12-04T06:36:37;54.40;;;26.27;;
46653;SDS011;38960;51.074;17.004;2023-12-04T06:39:04;55.00;;;26.13;;
46653;SDS011;38960;51.074;17.004;2023-12-04T06:41:34;62.33;;;29.07;;
46653;SDS011;38960;51.074;17.004;2023-12-04T06:43:59;61.93;;;29.80;;
46653;SDS011;38960;51.074;17.004;2023-12-04T06:46:25;58.53;;;25.73;;
46653;SDS011;38960;51.074;17.004;2023-12-04T06:48:54;61.63;;;28.90;;
46653;SDS011;38960;51.074;17.004;2023-12-04T06:51:22;56.90;;;26.57;;
46653;SDS011;38960;51.074;17.004;2023-12-04T06:53:48;60.17;;;26.77;;
46653;SDS011;38960;51.074;17.004;2023-12-04T06:56:13;60.10;;;28.80;;
46653;SDS011;38960;51.074;17.004;2023-12-04T06:58:38;65.40;;;30.10;;
46653;SDS011;38960;51.074;17.004;2023-12-04T07:01:04;61.63;;;28.57;;
46653;SDS011;38960;51.074;17.004;2023-12-04T07:03:30;67.97;;;32.57;;
46653;SDS011;38960;51.074;17.004;2023-12-04T07:05:55;72.93;;;32.07;;
46653;SDS011;38960;51.074;17.004;2023-12-04T07:08:21;73.57;;;32.70;;
46653;SDS011;38960;51.074;17.004;2023-12-04T07:10:46;66.93;;;31.77;;
46653;SDS011;38960;51.074;17.004;2023-12-04T07:13:12;71.20;;;33.10;;
46653;SDS011;38960;51.074;17.004;2023-12-04T07:15:43;67.00;;;32.37;;
46653;SDS011;38960;51.074;17.004;2023-12-04T07:18:09;75.50;;;36.07;;
46653;SDS011;38960;51.074;17.004;2023-12-04T07:20:34;68.87;;;32.93;;
46653;SDS011;38960;51.074;17.004;2023-12-04T07:23:00;69.67;;;32.77;;
46653;SDS011;38960;51.074;17.004;2023-12-04T07:25:25;64.47;;;29.43;;
46653;SDS011;38960;51.074;17.004;2023-12-04T07:31:44;78.70;;;34.00;;
46653;SDS011;38960;51.074;17.004;2023-12-04T07:37:31;67.73;;;29.90;;
46653;SDS011;38960;51.074;17.004;2023-12-04T07:39:57;62.23;;;28.50;;
46653;SDS011;38960;51.074;17.004;2023-12-04T07:42:22;66.17;;;29.87;;
46653;SDS011;38960;51.074;17.004;2023-12-04T07:44:48;68.47;;;31.00;;
46653;SDS011;38960;51.074;17.004;2023-12-04T07:47:14;62.27;;;29.93;;
46653;SDS011;38960;51.074;17.004;2023-12-04T07:49:41;63.97;;;29.77;;
46653;SDS011;38960;51.074;17.004;2023-12-04T07:52:07;63.23;;;30.47;;
46653;SDS011;38960;51.074;17.004;2023-12-04T07:54:33;64.13;;;30.47;;
46653;SDS011;38960;51.074;17.004;2023-12-04T07:56:58;60.23;;;31.03;;
46653;SDS011;38960;51.074;17.004;2023-12-04T07:59:24;56.67;;;29.43;;
46653;SDS011;38960;51.074;17.004;2023-12-04T08:01:50;57.40;;;30.00;;
46653;SDS011;38960;51.074;17.004;2023-12-04T08:04:16;63.90;;;28.97;;
46653;SDS011;38960;51.074;17.004;2023-12-04T08:06:42;62.60;;;31.23;;
46653;SDS011;38960;51.074;17.004;2023-12-04T08:09:07;56.63;;;29.07;;
46653;SDS011;38960;51.074;17.004;2023-12-04T08:11:35;59.40;;;30.37;;
46653;SDS011;38960;51.074;17.004;2023-12-04T08:14:01;59.00;;;28.60;;
46653;SDS011;38960;51.074;17.004;2023-12-04T08:16:27;58.27;;;31.70;;
46653;SDS011;38960;51.074;17.004;2023-12-04T08:18:54;52.27;;;27.57;;
46653;SDS011;38960;51.074;17.004;2023-12-04T08:21:20;56.13;;;26.97;;
46653;SDS011;38960;51.074;17.004;2023-12-04T08:23:45;59.93;;;28.83;;
46653;SDS011;38960;51.074;17.004;2023-12-04T08:26:11;53.27;;;29.40;;
46653;SDS011;38960;51.074;17.004;2023-12-04T08:28:37;53.47;;;27.63;;
46653;SDS011;38960;51.074;17.004;2023-12-04T08:31:07;54.97;;;26.57;;
46653;SDS011;38960;51.074;17.004;2023-12-04T08:33:33;48.73;;;25.07;;
46653;SDS011;38960;51.074;17.004;2023-12-04T08:36:00;53.03;;;28.10;;
46653;SDS011;38960;51.074;17.004;2023-12-04T08:38:25;55.07;;;28.27;;
46653;SDS011;38960;51.074;17.004;2023-12-04T08:40:51;60.47;;;29.43;;
46653;SDS011;38960;51.074;17.004;2023-12-04T08:43:17;48.93;;;25.90;;
46653;SDS011;38960;51.074;17.004;2023-12-04T08:45:44;56.90;;;28.93;;
46653;SDS011;38960;51.074;17.004;2023-12-04T08:48:10;59.40;;;29.47;;
46653;SDS011;38960;51.074;17.004;2023-12-04T08:50:35;57.93;;;29.57;;
46653;SDS011;38960;51.074;17.004;2023-12-04T08:53:03;54.07;;;26.77;;
46653;SDS011;38960;51.074;17.004;2023-12-04T08:55:29;50.77;;;26.97;;
46653;SDS011;38960;51.074;17.004;2023-12-04T08:57:54;51.27;;;28.67;;
46653;SDS011;38960;51.074;17.004;2023-12-04T09:00:20;46.87;;;25.60;;
46653;SDS011;38960;51.074;17.004;2023-12-04T09:02:47;48.33;;;26.20;;
46653;SDS011;38960;51.074;17.004;2023-12-04T09:05:13;46.00;;;26.00;;
46653;SDS011;38960;51.074;17.004;2023-12-04T09:07:38;43.97;;;24.50;;
46653;SDS011;38960;51.074;17.004;2023-12-04T09:10:04;47.03;;;25.07;;
46653;SDS011;38960;51.074;17.004;2023-12-04T09:12:30;50.20;;;25.50;;
46653;SDS011;38960;51.074;17.004;2023-12-04T09:14:55;49.47;;;26.33;;
46653;SDS011;38960;51.074;17.004;2023-12-04T09:17:21;47.57;;;26.20;;
46653;SDS011;38960;51.074;17.004;2023-12-04T09:19:46;46.60;;;24.13;;
46653;SDS011;38960;51.074;17.004;2023-12-04T09:22:12;50.07;;;27.03;;
46653;SDS011;38960;51.074;17.004;2023-12-04T09:24:37;48.00;;;25.70;;
46653;SDS011;38960;51.074;17.004;2023-12-04T09:27:03;40.67;;;22.93;;
46653;SDS011;38960;51.074;17.004;2023-12-04T09:29:29;44.27;;;25.93;;
46653;SDS011;38960;51.074;17.004;2023-12-04T09:31:54;44.83;;;25.13;;
46653;SDS011;38960;51.074;17.004;2023-12-04T09:34:20;46.43;;;26.70;;
46653;SDS011;38960;51.074;17.004;2023-12-04T09:36:49;47.93;;;26.47;;
46653;SDS011;38960;51.074;17.004;2023-12-04T09:39:14;50.77;;;25.73;;
46653;SDS011;38960;51.074;17.004;2023-12-04T09:41:40;46.67;;;25.67;;
46653;SDS011;38960;51.074;17.004;2023-12-04T09:44:07;48.60;;;25.77;;
46653;SDS011;38960;51.074;17.004;2023-12-04T09:46:34;51.57;;;27.00;;
46653;SDS011;38960;51.074;17.004;2023-12-04T09:48:59;49.33;;;25.33;;
46653;SDS011;38960;51.074;17.004;2023-12-04T09:51:26;42.23;;;23.97;;
46653;SDS011;38960;51.074;17.004;2023-12-04T09:53:52;46.07;;;25.23;;
46653;SDS011;38960;51.074;17.004;2023-12-04T09:56:20;45.33;;;26.13;;
46653;SDS011;38960;51.074;17.004;2023-12-04T09:58:47;41.80;;;23.27;;
46653;SDS011;38960;51.074;17.004;2023-12-04T10:01:17;48.67;;;25.90;;
46653;SDS011;38960;51.074;17.004;2023-12-04T10:03:43;49.70;;;27.47;;
46653;SDS011;38960;51.074;17.004;2023-12-04T10:06:09;47.47;;;25.53;;
46653;SDS011;38960;51.074;17.004;2023-12-04T10:08:37;53.20;;;26.67;;
46653;SDS011;38960;51.074;17.004;2023-12-04T10:11:02;50.63;;;28.23;;
46653;SDS011;38960;51.074;17.004;2023-12-04T10:13:28;46.83;;;26.83;;
46653;SDS011;38960;51.074;17.004;2023-12-04T10:15:54;52.93;;;27.37;;
46653;SDS011;38960;51.074;17.004;2023-12-04T10:18:29;44.30;;;25.23;;
46653;SDS011;38960;51.074;17.004;2023-12-04T10:20:56;44.47;;;24.57;;
46653;SDS011;38960;51.074;17.004;2023-12-04T10:23:22;49.00;;;25.90;;
46653;SDS011;38960;51.074;17.004;2023-12-04T10:25:48;51.43;;;25.53;;
46653;SDS011;38960;51.074;17.004;2023-12-04T10:28:17;52.33;;;27.37;;
46653;SDS011;38960;51.074;17.004;2023-12-04T10:30:44;50.83;;;28.13;;
46653;SDS011;38960;51.074;17.004;2023-12-04T10:33:10;58.10;;;27.70;;
46653;SDS011;38960;51.074;17.004;2023-12-04T10:35:36;53.63;;;25.53;;
46653;SDS011;38960;51.074;17.004;2023-12-04T10:38:02;53.17;;;26.20;;
46653;SDS011;38960;51.074;17.004;2023-12-04T10:40:29;47.73;;;24.37;;
46653;SDS011;38960;51.074;17.004;2023-12-04T10:45:37;49.53;;;24.87;;
46653;SDS011;38960;51.074;17.004;2023-12-04T10:48:04;53.30;;;27.90;;
46653;SDS011;38960;51.074;17.004;2023-12-04T10:50:34;45.93;;;24.47;;
46653;SDS011;38960;51.074;17.004;2023-12-04T10:53:04;50.30;;;26.53;;
46653;SDS011;38960;51.074;17.004;2023-12-04T10:55:30;44.67;;;25.03;;
46653;SDS011;38960;51.074;17.004;2023-12-04T10:57:56;48.07;;;26.40;;
46653;SDS011;38960;51.074;17.004;2023-12-04T11:00:23;55.37;;;27.17;;
46653;SDS011;38960;51.074;17.004;2023-12-04T11:02:49;49.27;;;24.80;;
46653;SDS011;38960;51.074;17.004;2023-12-04T11:05:15;42.57;;;22.80;;
46653;SDS011;38960;51.074;17.004;2023-12-04T11:08:05;51.38;;;24.60;;
46653;SDS011;38960;51.074;17.004;2023-12-04T11:10:32;42.90;;;22.83;;
46653;SDS011;38960;51.074;17.004;2023-12-04T11:13:06;48.23;;;24.17;;
46653;SDS011;38960;51.074;17.004;2023-12-04T11:15:39;50.00;;;26.00;;
46653;SDS011;38960;51.074;17.004;2023-12-04T11:18:06;49.73;;;25.77;;
46653;SDS011;38960;51.074;17.004;2023-12-04T11:20:34;52.13;;;26.53;;
46653;SDS011;38960;51.074;17.004;2023-12-04T11:23:05;46.90;;;24.27;;
46653;SDS011;38960;51.074;17.004;2023-12-04T11:25:32;59.80;;;29.07;;
46653;SDS011;38960;51.074;17.004;2023-12-04T11:28:00;59.03;;;27.73;;
46653;SDS011;38960;51.074;17.004;2023-12-04T11:30:26;58.83;;;30.37;;
46653;SDS011;38960;51.074;17.004;2023-12-04T11:32:52;57.50;;;27.97;;
46653;SDS011;38960;51.074;17.004;2023-12-04T11:35:21;57.60;;;29.17;;
46653;SDS011;38960;51.074;17.004;2023-12-04T11:37:47;53.53;;;27.33;;
46653;SDS011;38960;51.074;17.004;2023-12-04T11:40:16;54.80;;;30.80;;
46653;SDS011;38960;51.074;17.004;2023-12-04T11:42:41;56.23;;;29.50;;
46653;SDS011;38960;51.074;17.004;2023-12-04T11:45:07;63.63;;;29.53;;
46653;SDS011;38960;51.074;17.004;2023-12-04T11:50:14;59.80;;;30.30;;
46653;SDS011;38960;51.074;17.004;2023-12-04T11:52:40;58.17;;;29.80;;
46653;SDS011;38960;51.074;17.004;2023-12-04T11:55:06;59.27;;;30.33;;
46653;SDS011;38960;51.074;17.004;2023-12-04T11:57:33;64.47;;;32.60;;
46653;SDS011;38960;51.074;17.004;2023-12-04T12:00:13;59.17;;;30.60;;
46653;SDS011;38960;51.074;17.004;2023-12-04T12:02:50;69.57;;;34.47;;
46653;SDS011;38960;51.074;17.004;2023-12-04T12:05:27;67.80;;;35.30;;
46653;SDS011;38960;51.074;17.004;2023-12-04T12:07:53;77.73;;;38.53;;
46653;SDS011;38960;51.074;17.004;2023-12-04T12:10:19;71.23;;;39.53;;
46653;SDS011;38960;51.074;17.004;2023-12-04T12:12:45;78.73;;;41.07;;
46653;SDS011;38960;51.074;17.004;2023-12-04T12:15:12;75.60;;;38.53;;
46653;SDS011;38960;51.074;17.004;2023-12-04T12:17:39;72.03;;;39.07;;
46653;SDS011;38960;51.074;17.004;2023-12-04T12:20:06;73.43;;;37.07;;
46653;SDS011;38960;51.074;17.004;2023-12-04T12:22:35;77.10;;;39.30;;
46653;SDS011;38960;51.074;17.004;2023-12-04T12:25:05;70.27;;;38.70;;
46653;SDS011;38960;51.074;17.004;2023-12-04T12:27:31;68.90;;;38.07;;
46653;SDS011;38960;51.074;17.004;2023-12-04T12:29:57;70.90;;;37.83;;
46653;SDS011;38960;51.074;17.004;2023-12-04T12:32:23;71.80;;;38.40;;
46653;SDS011;38960;51.074;17.004;2023-12-04T12:34:48;75.20;;;38.23;;
46653;SDS011;38960;51.074;17.004;2023-12-04T12:37:14;64.43;;;36.67;;
46653;SDS011;38960;51.074;17.004;2023-12-04T12:39:40;73.53;;;38.27;;
46653;SDS011;38960;51.074;17.004;2023-12-04T12:42:06;68.80;;;37.07;;
46653;SDS011;38960;51.074;17.004;2023-12-04T12:44:38;72.20;;;36.90;;
46653;SDS011;38960;51.074;17.004;2023-12-04T12:47:07;71.60;;;38.03;;
46653;SDS011;38960;51.074;17.004;2023-12-04T12:49:33;75.03;;;36.83;;
46653;SDS011;38960;51.074;17.004;2023-12-04T12:52:01;66.57;;;35.13;;
46653;SDS011;38960;51.074;17.004;2023-12-04T12:54:26;68.50;;;35.33;;
46653;SDS011;38960;51.074;17.004;2023-12-04T12:56:52;69.50;;;36.23;;
46653;SDS011;38960;51.074;17.004;2023-12-04T12:59:17;76.63;;;36.07;;
46653;SDS011;38960;51.074;17.004;2023-12-04T13:01:43;71.37;;;35.17;;
46653;SDS011;38960;51.074;17.004;2023-12-04T13:04:08;76.37;;;36.80;;
46653;SDS011;38960;51.074;17.004;2023-12-04T13:06:40;68.38;;;37.17;;
46653;SDS011;38960;51.074;17.004;2023-12-04T13:09:06;73.70;;;36.50;;
46653;SDS011;38960;51.074;17.004;2023-12-04T13:11:32;71.97;;;36.47;;
46653;SDS011;38960;51.074;17.004;2023-12-04T13:13:58;74.23;;;38.13;;
46653;SDS011;38960;51.074;17.004;2023-12-04T13:16:24;66.23;;;36.23;;
46653;SDS011;38960;51.074;17.004;2023-12-04T13:18:49;73.93;;;38.87;;
46653;SDS011;38960;51.074;17.004;2023-12-04T13:21:15;76.13;;;38.83;;
46653;SDS011;38960;51.074;17.004;2023-12-04T13:23:41;75.17;;;38.03;;
46653;SDS011;38960;51.074;17.004;2023-12-04T13:26:07;78.97;;;37.97;;
46653;SDS011;38960;51.074;17.004;2023-12-04T13:28:36;82.07;;;39.60;;
46653;SDS011;38960;51.074;17.004;2023-12-04T13:31:04;77.20;;;39.70;;
46653;SDS011;38960;51.074;17.004;2023-12-04T13:33:30;83.47;;;38.60;;
46653;SDS011;38960;51.074;17.004;2023-12-04T13:35:56;81.57;;;41.67;;
46653;SDS011;38960;51.074;17.004;2023-12-04T13:38:22;82.03;;;41.20;;
46653;SDS011;38960;51.074;17.004;2023-12-04T13:40:47;80.40;;;39.87;;
46653;SDS011;38960;51.074;17.004;2023-12-04T13:43:26;79.43;;;39.13;;
46653;SDS011;38960;51.074;17.004;2023-12-04T13:46:10;86.30;;;41.73;;
46653;SDS011;38960;51.074;17.004;2023-12-04T13:48:36;79.50;;;39.53;;
46653;SDS011;38960;51.074;17.004;2023-12-04T13:51:06;80.00;;;40.27;;
46653;SDS011;38960;51.074;17.004;2023-12-04T13:53:34;79.90;;;39.13;;
46653;SDS011;38960;51.074;17.004;2023-12-04T13:56:01;77.37;;;37.90;;
46653;SDS011;38960;51.074;17.004;2023-12-04T13:58:26;83.53;;;38.73;;
46653;SDS011;38960;51.074;17.004;2023-12-04T14:01:01;77.77;;;39.83;;
46653;SDS011;38960;51.074;17.004;2023-12-04T14:03:36;80.03;;;40.43;;
46653;SDS011;38960;51.074;17.004;2023-12-04T14:06:04;76.40;;;38.23;;
46653;SDS011;38960;51.074;17.004;2023-12-04T14:08:29;78.23;;;38.27;;
46653;SDS011;38960;51.074;17.004;2023-12-04T14:10:55;79.77;;;40.57;;
46653;SDS011;38960;51.074;17.004;2023-12-04T14:13:20;76.93;;;36.97;;
46653;SDS011;38960;51.074;17.004;2023-12-04T14:15:46;75.13;;;37.27;;